Date,TemperatureHighF,TemperatureAvgF,TemperatureLowF,DewpointHighF,DewpointAvgF,DewpointLowF,HumidityHigh,HumidityAvg,HumidityLow,PressureMaxIn,PressureMinIn,WindSpeedMaxMPH,WindSpeedAvgMPH,GustSpeedMaxMPH,PrecipitationSumIn
2013-1-1,35.0,29.9,18.1,27.4,17.4,6.2,74,60,45,29.92,29.67,32,17,37,0.00
2013-1-2,25.4,17.9,6.7,16.8,6.9,-4.6,71,62,50,30.11,29.88,26,14,30,0.00
2013-1-3,22.7,12.3,3.5,8.0,-0.4,-5.1,74,57,34,30.12,29.98,22,11,25,0.00
2013-1-4,46.6,30.2,15.9,30.6,20.9,6.9,81,69,51,29.97,29.76,26,12,28,0.00
2013-1-5,37.7,33.1,23.7,25.7,20.8,15.6,84,61,42,30.26,29.78,30,11,34,0.00
2013-1-6,41.3,32.3,23.1,29.7,25.7,18.1,91,77,59,30.22,29.91,18,7,22,0.00
2013-1-7,35.3,31.5,26.1,30.9,26.7,22.9,91,82,71,30.39,29.93,17,7,19,0.00
2013-1-8,44.1,35.8,26.5,29.9,27.0,24.0,92,72,49,30.35,30.22,24,10,33,0.00
2013-1-9,43.9,35.7,27.3,35.4,28.8,23.5,87,76,62,30.40,29.94,25,8,33,0.00
2013-1-10,44.0,40.7,33.4,31.5,26.9,23.8,74,58,48,30.52,29.97,45,18,53,0.00
2013-1-11,40.0,34.8,27.0,37.4,29.7,22.7,93,81,71,30.50,30.22,15,5,19,0.10
2013-1-12,42.9,40.6,38.8,41.6,39.5,37.2,98,96,94,30.22,30.11,14,3,15,0.01
2013-1-13,50.6,45.0,41.0,48.5,44.1,40.5,98,97,91,30.14,29.95,15,5,16,0.00
2013-1-14,59.6,50.6,40.1,50.5,43.0,28.1,96,77,49,30.23,29.80,22,12,29,0.00
2013-1-15,40.1,36.7,32.6,30.8,27.4,24.6,79,69,61,30.30,30.21,12,5,14,0.00
2013-1-16,33.4,31.1,28.4,30.8,28.5,23.8,97,91,70,30.24,29.80,8,5,10,0.00
2013-1-17,40.7,33.2,27.3,32.9,25.9,9.2,97,76,46,30.09,29.80,24,11,27,0.12
2013-1-18,27.3,19.6,13.7,12.7,1.2,-8.8,61,44,32,30.43,30.05,29,14,34,0.00
2013-1-19,46.5,35.8,20.4,30.6,21.7,8.4,76,57,43,30.37,29.86,34,14,40,0.00
2013-1-20,51.8,40.4,28.1,32.6,25.0,11.2,77,56,26,29.89,29.47,42,20,52,0.00
2013-1-21,28.1,23.9,20.3,19.8,8.8,0.7,88,54,39,30.07,29.78,24,11,31,0.00
2013-1-22,23.8,19.9,13.2,20.2,9.9,-3.2,88,67,33,30.06,29.74,31,14,32,0.00
2013-1-23,13.3,8.4,3.2,2.7,-6.4,-11.2,71,51,36,30.14,30.05,28,15,35,0.00
2013-1-24,15.4,7.5,-0.3,-1.9,-8.7,-13.0,62,48,32,30.18,30.02,39,22,42,0.00
2013-1-25,20.6,14.1,7.1,0.0,-3.6,-6.6,60,46,30,30.26,30.06,32,16,37,0.00
2013-1-26,22.2,16.4,12.0,11.0,3.9,-5.8,86,60,30,30.19,29.99,30,14,34,0.00
2013-1-27,27.4,19.4,13.3,7.4,1.0,-6.3,68,46,24,30.45,30.18,31,18,36,0.00
2013-1-28,27.7,22.5,17.5,25.7,9.5,-1.9,95,61,28,30.44,30.02,15,5,17,0.00
2013-1-29,33.2,28.4,23.0,30.9,25.6,21.0,95,89,80,30.19,30.03,10,4,12,0.01
2013-1-30,60.2,45.8,32.1,56.9,44.4,30.8,100,95,86,30.15,29.44,27,9,34,0.20
2013-1-31,62.4,47.0,31.0,58.5,36.5,14.0,98,69,39,29.53,28.89,54,26,65,0.02
2013-2-1,31.1,27.5,20.5,17.6,11.0,5.4,64,50,35,30.05,29.53,31,20,38,0.00
2013-2-2,27.6,23.1,17.2,13.5,8.5,3.7,66,53,40,30.22,30.03,17,8,23,0.00
2013-2-3,26.6,24.4,22.2,21.1,18.5,12.6,91,78,56,30.04,29.70,15,9,18,0.00
2013-2-4,28.6,24.8,20.9,19.4,11.0,4.0,83,57,36,29.90,29.69,33,17,37,0.00
2013-2-5,28.5,23.1,18.4,22.9,10.6,4.8,84,59,44,30.03,29.90,13,7,17,0.00
2013-2-6,41.8,30.3,22.4,33.0,24.0,19.0,93,78,50,30.30,29.92,22,6,26,0.02
2013-2-7,29.4,22.7,16.4,24.3,4.8,-5.8,84,48,26,30.52,30.28,21,7,26,0.00
2013-2-8,31.6,25.3,16.8,29.6,21.8,14.4,96,87,62,30.50,29.67,42,19,49,0.00
2013-2-9,23.6,18.5,14.5,18.0,12.9,6.1,91,79,59,30.16,29.59,45,26,54,0.00
2013-2-10,37.2,24.0,12.6,19.2,5.9,0.7,74,48,25,30.38,30.16,21,8,23,0.00
2013-2-11,39.0,30.0,20.6,38.2,26.7,12.6,97,88,65,30.34,29.58,18,3,21,0.34
2013-2-12,43.2,38.3,33.9,35.0,30.3,27.4,97,74,54,29.83,29.56,28,14,37,0.00
2013-2-13,40.8,35.2,29.6,29.0,25.4,22.7,86,68,50,29.85,29.70,16,6,18,0.00
2013-2-14,45.7,35.3,30.6,30.4,24.7,19.0,82,66,42,29.98,29.68,17,7,19,0.00
2013-2-15,51.0,38.1,29.2,36.8,30.7,24.5,91,75,51,29.98,29.88,21,7,24,0.00
2013-2-16,38.7,34.5,31.2,33.0,28.3,18.9,95,79,55,29.94,29.71,19,8,23,0.00
2013-2-17,31.1,22.5,16.3,19.1,11.1,2.9,90,62,41,29.71,29.31,56,28,57,0.00
2013-2-18,30.2,22.4,14.4,7.3,2.5,-2.4,66,44,25,30.11,29.59,42,24,52,0.00
2013-2-19,40.9,32.7,23.2,39.5,21.5,4.3,96,66,39,30.13,29.55,20,9,25,0.47
2013-2-20,40.5,33.4,27.1,39.7,23.4,14.3,97,68,47,29.73,29.48,33,18,37,0.01
2013-2-21,28.8,26.0,23.5,18.6,14.4,9.9,71,61,51,30.16,29.70,30,19,35,0.00
2013-2-22,36.5,30.5,22.6,26.3,22.0,16.9,80,71,59,30.38,30.15,20,8,24,0.00
2013-2-23,37.6,35.2,30.9,34.8,30.3,25.5,92,82,75,30.33,29.94,19,6,22,0.03
2013-2-24,37.6,33.5,29.4,36.0,32.3,28.7,97,96,91,29.94,29.71,26,11,28,0.19
2013-2-25,36.1,32.0,28.5,34.5,30.4,27.5,97,94,87,30.23,29.89,9,3,13,0.11
2013-2-26,41.8,36.0,29.8,37.2,32.2,28.7,96,86,69,30.34,30.18,16,3,20,0.01
2013-2-27,41.7,38.9,35.8,38.9,36.2,31.5,98,90,75,30.19,29.53,31,18,36,0.64
2013-2-28,46.6,37.8,32.5,38.6,34.6,31.7,98,89,66,29.61,29.51,21,7,23,0.00
2013-3-1,39.4,36.2,33.2,33.0,30.8,29.5,91,81,69,29.66,29.52,16,8,19,0.00
2013-3-2,43.3,36.7,32.5,31.1,29.2,27.3,87,75,57,29.66,29.59,15,8,17,0.00
2013-3-3,39.2,34.2,30.0,33.9,29.9,26.3,95,85,70,29.63,29.54,20,10,22,0.00
2013-3-4,36.7,33.0,30.4,27.9,25.1,22.5,81,72,64,29.71,29.54,31,21,38,0.00
2013-3-5,41.5,36.2,30.9,36.0,30.2,23.3,92,79,67,30.07,29.71,22,10,26,0.00
2013-3-6,39.5,37.0,33.7,35.8,33.3,28.9,95,87,68,30.15,30.06,35,22,195,0.01
2013-3-7,36.5,32.8,30.3,33.2,29.5,27.1,95,87,77,30.12,30.00,38,22,43,0.00
2013-3-8,44.8,35.6,28.5,29.8,25.4,20.6,96,71,40,30.15,29.95,28,17,35,0.00
2013-3-9,39.3,35.9,30.6,32.6,27.4,21.6,92,72,50,30.35,30.15,21,9,25,0.00
2013-3-10,39.0,33.6,26.7,32.7,29.6,24.7,94,86,73,30.41,30.30,12,5,16,0.00
2013-3-11,48.6,40.1,34.0,40.2,35.4,31.1,93,84,58,30.33,30.14,18,7,20,0.00
2013-3-12,48.1,43.3,40.0,47.6,42.0,38.4,98,95,92,30.16,29.71,19,8,24,0.28
2013-3-13,49.7,44.0,36.9,49.2,34.3,23.1,98,71,42,29.76,29.67,22,11,27,0.00
2013-3-14,36.9,31.7,22.4,24.9,18.8,6.4,75,59,48,29.80,29.66,34,15,40,0.00
2013-3-15,39.0,27.9,17.9,29.0,13.2,4.8,82,55,29,29.84,29.60,36,16,40,0.00
2013-3-16,36.6,31.6,27.6,29.3,16.8,9.4,87,55,34,29.88,29.62,26,10,32,0.00
2013-3-17,32.6,28.8,23.8,20.0,11.3,1.0,71,49,30,30.32,29.88,35,13,36,0.00
2013-3-18,33.3,26.6,17.4,25.1,12.3,1.8,72,55,38,30.45,30.26,17,9,25,0.00
2013-3-19,33.6,31.7,29.7,32.8,30.4,24.7,100,95,71,30.25,29.64,37,17,42,0.06
2013-3-20,36.9,32.3,25.7,25.9,22.6,20.2,92,68,52,29.79,29.69,29,16,35,0.00
2013-3-21,34.4,30.5,26.2,28.7,22.4,18.7,92,72,56,29.79,29.60,12,6,14,0.00
2013-3-22,39.6,33.1,28.7,27.4,21.4,15.6,92,63,38,29.69,29.58,25,9,28,0.01
2013-3-23,41.9,34.9,27.6,23.9,21.2,18.3,75,58,40,29.74,29.59,36,19,42,0.00
2013-3-24,45.2,37.6,32.6,33.7,26.8,23.0,86,66,43,29.79,29.71,25,10,32,0.00
2013-3-25,39.4,35.4,29.8,34.9,30.8,24.4,89,83,76,29.77,29.55,21,10,23,0.00
2013-3-26,49.3,40.4,32.2,32.7,24.4,18.6,85,55,30,29.75,29.54,22,10,25,0.00
2013-3-27,50.8,41.7,34.6,35.3,27.9,22.6,87,59,38,29.86,29.71,21,12,27,0.00
2013-3-28,46.0,41.1,35.7,36.3,33.9,31.9,93,76,62,29.99,29.85,15,7,17,0.00
2013-3-29,52.8,45.7,39.8,37.4,33.6,30.2,76,63,42,30.02,29.94,18,10,21,0.00
2013-3-30,49.8,43.6,37.5,37.4,32.5,24.7,84,65,38,30.08,29.99,16,7,20,0.00
2013-3-31,54.8,42.1,31.2,39.7,32.4,22.7,85,70,37,30.11,29.78,25,7,32,0.00
2013-4-1,57.1,44.9,35.0,43.5,36.2,11.6,97,74,33,29.78,29.47,32,14,42,0.31
2013-4-2,37.8,33.9,30.5,17.8,13.8,9.1,55,44,33,29.90,29.75,41,20,49,0.00
2013-4-3,44.3,36.1,29.4,18.8,13.0,5.2,59,40,20,30.11,29.88,37,21,44,0.00
2013-4-4,53.9,41.5,30.5,31.1,17.3,9.6,63,40,19,30.26,29.99,28,13,30,0.00
2013-4-5,54.5,44.2,38.0,37.8,28.6,23.0,71,55,31,30.00,29.61,30,13,34,0.00
2013-4-6,43.6,35.8,29.2,25.2,12.7,3.4,70,40,20,30.33,29.85,40,16,45,0.00
2013-4-7,52.2,40.9,26.8,39.6,29.5,19.1,81,65,35,30.33,29.97,31,10,38,0.00
2013-4-8,57.6,48.2,44.0,42.3,39.7,33.6,88,74,42,30.10,29.92,19,8,23,0.00
2013-4-9,63.8,49.4,41.6,50.1,42.7,39.4,94,79,49,30.09,29.85,27,8,31,0.11
2013-4-10,50.0,45.7,43.1,45.4,43.2,41.3,96,91,83,30.00,29.85,13,4,15,0.50
2013-4-11,46.5,43.4,41.0,43.9,38.8,31.7,100,84,66,30.15,29.83,12,4,14,0.11
2013-4-12,43.3,38.3,35.9,36.9,32.6,28.6,95,81,59,30.20,29.81,27,16,30,0.35
2013-4-13,44.5,39.2,34.4,39.6,36.0,32.6,94,88,77,29.91,29.76,26,8,33,0.04
2013-4-14,50.6,45.3,39.5,39.5,34.3,27.6,92,67,41,30.19,29.91,26,10,29,0.00
2013-4-15,46.7,41.9,34.0,40.3,36.1,31.3,90,80,57,30.39,30.19,16,7,19,0.00
2013-4-16,63.5,50.2,39.0,51.7,42.2,35.3,89,75,52,30.40,30.00,31,14,35,0.00
2013-4-17,62.2,55.1,44.3,52.7,38.3,26.5,88,57,26,30.32,30.00,28,13,33,0.00
2013-4-18,52.0,45.9,37.6,42.6,38.6,33.5,89,76,54,30.45,30.15,20,7,23,0.00
2013-4-19,74.4,60.7,46.5,62.6,54.7,42.6,97,82,58,30.15,29.62,31,15,39,0.00
2013-4-20,67.9,53.1,43.9,63.1,40.4,24.1,93,65,36,30.18,29.57,29,16,36,0.22
2013-4-21,47.4,40.8,35.3,32.9,24.9,18.5,83,54,34,30.68,30.18,28,10,34,0.00
2013-4-22,45.5,40.5,32.1,37.1,33.1,27.8,87,75,63,30.79,30.61,16,9,19,0.00
2013-4-23,41.5,40.5,39.4,40.7,37.5,31.8,97,89,72,30.61,30.14,27,14,28,0.04
2013-4-24,57.7,48.9,41.3,53.0,45.6,40.5,99,89,71,30.14,29.77,25,13,30,0.01
2013-4-25,61.9,54.8,46.5,52.0,36.7,26.1,91,54,27,30.26,29.79,29,13,38,0.03
2013-4-26,47.8,46.1,43.6,41.8,37.7,30.1,93,73,51,30.43,30.26,14,6,16,0.00
2013-4-27,54.6,47.9,38.7,43.5,40.0,36.5,94,75,52,30.42,30.29,15,5,19,0.00
2013-4-28,53.3,48.9,41.3,45.8,41.7,37.5,89,76,64,30.35,30.23,17,6,21,0.00
2013-4-29,58.2,52.2,45.5,49.4,42.3,30.8,84,70,43,30.27,30.19,20,6,23,0.00
2013-4-30,60.8,52.7,45.5,43.6,37.6,23.5,80,58,24,30.37,30.24,14,6,16,0.00
2013-5-1,59.2,50.3,41.5,47.1,41.4,36.7,88,73,44,30.48,30.37,16,5,18,0.00
2013-5-2,62.7,50.3,43.6,49.4,43.4,40.2,91,78,51,30.49,30.37,21,5,27,0.00
2013-5-3,52.7,47.5,45.0,43.9,41.8,38.9,88,81,68,30.54,30.37,18,8,21,0.00
2013-5-4,48.7,46.1,41.1,45.5,41.3,38.9,95,83,73,30.39,30.32,11,5,15,0.00
2013-5-5,51.2,45.1,36.6,44.9,40.5,35.3,95,84,71,30.34,30.25,14,6,17,0.00
2013-5-6,50.9,45.5,38.1,47.5,43.7,36.9,97,94,86,30.29,30.16,14,4,17,0.00
2013-5-7,62.2,53.0,41.5,56.2,49.5,40.7,97,89,71,30.17,30.09,22,6,25,0.01
2013-5-8,61.4,55.9,53.0,56.2,53.7,51.3,96,92,83,30.23,30.07,12,4,16,0.04
2013-5-9,59.2,54.1,52.9,57.9,53.2,52.1,98,97,92,30.07,29.89,18,4,19,0.86
2013-5-10,59.3,55.8,53.1,58.1,54.5,52.8,100,96,91,29.95,29.88,16,5,19,0.00
2013-5-11,70.1,62.0,54.8,62.2,58.3,53.4,96,88,75,29.89,29.68,27,10,32,0.12
2013-5-12,68.9,59.7,50.5,60.2,50.5,29.7,100,75,39,29.78,29.54,30,9,33,0.06
2013-5-13,54.9,49.3,44.1,34.4,30.6,27.4,66,49,35,30.01,29.78,30,14,35,0.00
2013-5-14,57.0,49.3,41.1,37.3,31.8,24.8,79,53,31,30.04,29.93,23,10,28,0.00
2013-5-15,63.2,51.2,41.4,51.5,41.0,29.7,91,69,36,30.04,29.65,23,8,29,0.08
2013-5-16,77.9,65.1,50.0,51.1,43.3,33.6,95,53,22,29.79,29.58,37,14,43,0.00
2013-5-17,61.3,56.0,51.2,47.3,43.2,40.4,75,62,49,30.20,29.79,23,9,25,0.00
2013-5-18,59.9,52.3,46.2,51.8,47.5,42.0,94,84,57,30.30,30.20,13,4,16,0.00
2013-5-19,53.2,51.4,50.4,50.0,49.1,48.0,96,92,87,30.35,30.23,14,5,14,0.03
2013-5-20,74.6,60.3,50.9,64.0,56.9,49.8,98,89,65,30.23,29.90,16,5,19,0.06
2013-5-21,56.5,52.5,49.3,55.0,51.4,48.7,98,96,91,30.05,29.92,21,9,25,0.15
2013-5-22,52.1,50.9,49.1,51.3,50.4,48.6,99,98,96,30.05,29.87,18,4,19,1.31
2013-5-23,75.1,58.6,50.5,69.5,56.4,50.0,100,93,78,29.93,29.79,5,0,8,0.10
2013-5-24,67.6,60.7,50.5,64.9,58.7,49.7,98,93,76,29.82,29.63,0,0,1,0.75
2013-5-25,50.4,47.5,39.9,49.6,46.8,37.2,98,97,90,29.81,29.66,0,0,0,0.21
2013-5-26,55.6,47.3,39.0,42.3,39.4,36.9,97,76,55,30.05,29.65,0,0,0,0.01
2013-5-27,68.6,56.4,43.4,46.0,38.7,32.5,87,56,28,30.16,30.04,9,0,11,0.00
2013-5-28,61.4,54.6,45.9,52.0,46.9,39.3,95,76,44,30.24,30.16,11,4,13,0.00
2013-5-29,60.6,55.9,52.0,58.6,54.8,50.6,100,96,91,30.17,29.98,12,4,16,0.22
2013-5-30,86.3,73.0,55.7,67.1,62.7,55.1,98,74,44,30.04,29.97,8,1,9,0.01
2013-5-31,91.5,80.9,68.1,67.9,65.2,60.7,86,61,37,30.05,29.89,20,9,26,0.00
2013-6-1,91.5,81.9,71.5,69.3,65.1,57.1,80,59,32,29.93,29.80,23,12,26,0.00
2013-6-2,89.7,78.3,66.8,69.7,66.1,61.1,88,68,39,29.83,29.67,34,13,42,0.00
2013-6-3,77.1,68.4,61.8,66.2,62.0,48.6,95,81,51,29.83,29.72,18,8,23,0.14
2013-6-4,67.1,60.5,54.0,49.2,44.5,41.7,71,56,42,30.07,29.79,24,13,33,0.00
2013-6-5,63.9,58.4,51.4,53.4,48.2,38.5,84,69,40,30.17,30.07,20,7,24,0.00
2013-6-6,60.9,57.6,54.0,56.7,53.3,50.9,94,86,71,30.18,30.10,12,4,15,0.00
2013-6-7,57.0,54.0,52.1,53.9,52.1,50.6,97,93,83,30.11,29.83,19,8,23,1.53
2013-6-8,75.3,62.2,51.9,63.7,56.9,51.4,100,84,63,29.96,29.61,9,0,19,0.70
2013-6-9,77.3,67.8,57.0,59.8,56.2,52.1,94,69,43,30.13,29.96,11,1,14,0.00
2013-6-10,64.5,59.4,56.7,56.4,55.3,53.4,97,87,72,30.21,30.03,8,4,10,0.35
2013-6-11,57.5,55.0,53.9,56.1,53.9,52.5,97,96,88,30.03,29.57,6,0,9,1.40
2013-6-12,65.8,60.2,54.9,58.1,55.7,54.1,97,85,69,29.78,29.54,0,0,0,0.06
2013-6-13,65.9,59.0,54.8,57.4,54.2,51.7,94,84,69,29.79,29.70,6,0,9,0.19
2013-6-14,76.5,61.3,53.3,57.5,53.8,51.3,95,78,46,29.75,29.65,6,0,9,0.44
2013-6-15,76.3,66.6,58.9,56.1,49.2,41.3,85,57,30,29.90,29.75,22,8,26,0.00
2013-6-16,74.9,67.1,57.5,61.0,54.4,50.1,80,65,43,29.91,29.68,18,7,21,0.00
2013-6-17,82.1,68.8,61.6,63.0,59.8,56.4,93,75,42,29.88,29.73,39,9,44,0.02
2013-6-18,66.7,61.0,57.5,60.2,57.7,54.8,95,89,71,29.95,29.86,14,4,16,0.16
2013-6-19,67.3,61.5,55.4,56.0,52.8,48.7,96,74,53,30.12,29.91,15,7,18,0.00
2013-6-20,69.3,62.0,52.2,61.2,53.4,45.9,87,74,51,30.25,30.12,16,7,21,0.00
2013-6-21,77.1,68.8,59.7,63.8,59.4,53.4,85,73,47,30.22,30.17,17,7,17,0.00
2013-6-22,82.8,72.8,63.5,66.0,62.7,60.6,91,72,49,30.19,30.08,22,8,25,0.00
2013-6-23,88.6,73.0,64.7,73.1,64.8,60.0,89,76,58,30.13,29.93,23,7,28,0.08
2013-6-24,91.6,78.9,66.9,71.3,68.2,63.6,92,72,42,29.98,29.83,41,12,48,0.05
2013-6-25,88.9,77.4,67.5,70.7,68.2,65.8,96,75,48,29.89,29.69,25,10,30,0.32
2013-6-26,78.8,69.4,59.4,70.5,66.6,58.5,98,91,72,29.86,29.69,22,6,27,0.44
2013-6-27,61.2,59.4,57.6,60.6,58.7,57.0,98,98,97,29.88,29.77,14,3,15,0.09
2013-6-28,76.4,64.6,55.4,72.5,63.0,54.8,99,95,84,29.78,29.46,0,0,1,0.21
2013-6-29,81.8,72.0,64.6,71.4,67.2,63.7,98,86,62,29.68,29.50,0,0,1,0.00
2013-6-30,82.0,73.8,67.1,73.3,68.9,65.0,95,85,73,29.91,29.68,0,0,1,0.00
2013-7-1,74.4,69.4,64.9,71.3,68.0,64.0,98,95,87,30.06,29.91,1,0,1,2.91
2013-7-2,70.9,63.2,56.9,70.6,62.6,56.3,99,98,95,30.21,30.06,0,0,1,0.02
2013-7-3,84.4,65.6,57.4,73.6,62.8,56.8,100,91,68,30.21,30.08,0,0,1,0.01
2013-7-4,90.9,82.3,74.1,74.4,73.0,71.6,92,75,55,30.16,30.04,0,0,0,0.00
2013-7-5,91.5,84.0,77.2,74.7,73.6,72.1,87,72,54,30.12,29.98,13,2,18,0.00
2013-7-6,87.3,82.1,75.5,74.2,71.2,67.9,86,71,54,30.03,29.93,21,7,25,0.00
2013-7-7,87.6,77.9,70.5,70.3,66.8,64.3,87,70,49,29.98,29.88,16,6,21,0.00
2013-7-8,76.0,69.0,64.0,73.1,66.1,60.8,94,90,84,30.06,29.88,17,6,21,0.01
2013-7-9,66.6,64.8,62.8,63.0,62.2,61.2,97,91,85,30.11,30.04,10,2,13,0.00
2013-7-10,80.9,68.2,62.4,74.4,66.7,61.7,98,95,76,30.08,29.76,1,0,1,0.01
2013-7-11,81.3,74.6,68.6,73.7,71.2,66.8,96,89,74,29.92,29.73,0,0,1,0.06
2013-7-12,70.4,68.7,65.8,68.0,60.9,57.7,96,76,65,30.20,29.92,4,0,6,0.00
2013-7-13,70.2,67.3,64.6,67.1,62.9,59.8,94,86,75,30.32,30.19,8,2,10,0.00
2013-7-14,83.7,74.8,67.6,73.5,70.4,66.1,100,87,68,30.28,30.17,7,0,8,0.00
2013-7-15,85.0,78.5,71.1,73.2,71.3,68.9,94,79,65,30.18,30.06,10,1,15,0.00
2013-7-16,86.3,78.0,70.6,73.1,69.0,65.4,87,75,59,30.15,30.08,11,4,12,0.00
2013-7-17,85.2,78.7,69.6,75.3,71.7,67.5,94,80,66,30.16,29.96,21,7,23,0.00
2013-7-18,82.9,75.6,71.5,72.6,70.4,68.5,93,84,68,30.00,29.92,17,6,17,0.00
2013-7-19,94.3,83.5,70.3,77.9,73.0,69.0,96,73,48,29.92,29.66,29,10,33,0.00
2013-7-20,88.1,82.3,73.4,77.5,70.7,65.9,87,68,57,29.78,29.62,29,10,46,0.16
2013-7-21,75.9,70.1,66.3,66.9,64.7,61.9,93,83,69,29.99,29.78,11,5,14,0.00
2013-7-22,72.6,68.5,65.9,67.9,66.1,64.8,97,92,81,30.03,29.90,12,5,13,0.00
2013-7-23,70.9,68.0,65.6,70.3,67.1,64.7,98,97,93,29.89,29.53,14,2,17,1.02
2013-7-24,82.0,73.4,64.7,73.8,66.1,53.9,99,80,55,29.96,29.57,1,0,2,0.07
2013-7-25,64.7,61.1,59.8,59.7,54.4,50.5,95,79,70,30.11,29.96,16,8,19,0.10
2013-7-26,70.8,65.7,61.0,66.2,62.7,59.2,95,90,80,30.05,29.89,18,1,21,0.04
2013-7-27,79.9,70.7,61.9,68.3,63.2,57.5,91,78,49,30.02,29.95,14,2,18,0.00
2013-7-28,69.3,65.8,63.3,66.3,63.9,62.7,98,94,86,30.01,29.97,18,3,21,0.03
2013-7-29,75.4,66.3,63.2,70.6,65.1,62.6,98,96,84,30.04,29.94,5,0,9,0.00
2013-7-30,78.6,70.9,62.8,66.4,60.6,53.4,97,73,42,30.08,30.01,1,0,1,0.00
2013-7-31,73.5,67.9,61.3,65.3,61.2,58.3,92,80,63,30.12,30.03,7,0,14,0.00
2013-8-1,74.7,69.3,62.8,67.6,64.5,61.3,96,85,71,30.03,29.87,9,0,15,0.00
2013-8-2,81.1,71.1,64.2,68.3,62.7,56.9,96,77,44,29.87,29.75,17,1,22,0.15
2013-8-3,78.9,71.1,63.9,63.4,60.8,57.2,90,71,51,29.84,29.74,24,4,26,0.00
2013-8-4,75.9,68.1,60.8,59.4,56.6,53.8,83,67,49,29.86,29.75,19,10,24,0.00
2013-8-5,73.6,64.4,57.9,54.3,48.3,39.2,84,59,30,30.03,29.86,26,13,36,0.00
2013-8-6,70.3,62.9,52.6,59.2,53.6,46.0,88,72,55,30.15,30.03,12,5,15,0.00
2013-8-7,71.4,64.6,55.4,64.5,58.7,53.2,94,82,69,30.18,30.10,17,6,20,0.00
2013-8-8,80.5,71.8,64.5,70.9,65.1,55.6,91,80,70,30.12,29.98,25,10,26,0.00
2013-8-9,73.0,70.8,64.7,72.4,69.2,64.1,98,95,89,30.01,29.70,26,7,28,1.34
2013-8-10,79.7,72.8,62.8,70.9,60.6,49.9,98,69,36,30.00,29.76,17,2,20,0.00
2013-8-11,77.1,66.8,56.5,60.0,54.2,50.7,89,66,42,30.06,29.98,21,2,25,0.00
2013-8-12,79.7,68.9,59.3,62.0,57.1,51.0,90,69,44,30.01,29.89,14,6,17,0.00
2013-8-13,70.1,66.5,63.7,65.9,63.6,61.0,98,90,81,29.90,29.67,12,4,15,0.01
2013-8-14,72.1,66.2,61.4,63.9,55.1,50.8,98,69,48,29.93,29.64,32,9,32,0.01
2013-8-15,74.4,64.9,54.4,55.7,52.0,48.3,85,65,42,30.09,29.93,24,8,25,0.00
2013-8-16,76.5,66.0,54.4,59.8,54.8,50.6,88,69,42,30.17,30.08,18,6,24,0.00
2013-8-17,70.1,64.2,56.1,60.9,57.8,53.8,92,81,68,30.27,30.17,14,4,14,0.00
2013-8-18,76.5,66.1,56.9,64.0,59.9,55.5,95,81,56,30.26,30.05,14,4,18,0.00
2013-8-19,79.2,71.0,62.3,63.1,61.2,58.7,91,72,52,30.05,29.91,19,9,21,0.00
2013-8-20,79.4,71.9,63.7,66.3,63.3,60.4,89,75,58,30.06,29.95,13,6,16,0.00
2013-8-21,80.7,73.1,65.0,67.6,65.0,61.7,89,76,62,30.12,29.99,12,5,16,0.00
2013-8-22,85.2,76.5,67.6,71.3,66.6,63.2,88,73,50,30.00,29.78,19,10,24,0.00
2013-8-23,74.3,70.0,64.3,69.3,60.0,51.0,89,72,51,30.12,29.79,19,8,21,0.00
2013-8-24,69.9,63.1,54.0,55.6,50.5,45.9,86,65,44,30.31,30.12,12,6,16,0.00
2013-8-25,73.6,64.6,53.7,59.7,53.9,48.5,88,70,46,30.35,30.15,15,6,18,0.00
2013-8-26,78.8,69.2,64.8,66.5,59.8,56.5,84,72,66,30.15,29.90,20,11,25,0.00
2013-9-6,68.1,60.3,55.6,51.4,48.4,42.8,78,66,41,30.11,30.06,9,1,12,0.00
2013-9-7,76.2,64.4,52.7,59.3,52.1,47.8,86,66,43,30.06,29.81,12,2,17,0.00
2013-9-8,69.1,63.9,52.6,59.3,51.0,42.2,78,64,47,30.08,29.72,31,11,34,0.00
2013-9-9,67.1,57.3,47.1,54.7,45.3,39.6,85,66,40,30.22,30.07,16,7,20,0.00
2013-9-10,64.2,58.3,56.4,58.6,52.8,50.5,85,82,77,30.13,30.08,15,9,17,0.00
2013-9-18,71.7,63.6,58.6,51.0,49.6,46.0,75,61,40,30.13,30.11,7,4,11,0.00
2013-9-19,67.3,58.8,51.6,57.7,52.0,47.5,92,79,58,30.12,30.02,8,2,11,0.00
2013-9-20,63.7,58.6,51.3,59.6,55.1,49.6,97,89,69,30.09,30.00,8,2,10,0.00
2013-9-21,74.2,61.9,53.7,63.7,58.4,52.6,97,89,68,30.01,29.73,16,2,22,0.01
2013-9-22,68.0,62.8,53.4,62.0,56.3,44.3,95,81,53,29.79,29.58,24,2,29,0.02
2013-9-23,58.2,52.1,45.8,44.9,42.3,39.9,82,70,57,29.97,29.79,23,5,27,0.00
2013-9-24,61.4,51.8,45.7,49.0,43.4,40.4,87,74,52,29.97,29.80,19,2,25,0.00
2013-9-25,58.0,53.0,46.4,51.5,47.6,44.0,94,82,70,29.98,29.86,11,2,12,0.00
2013-9-26,60.2,55.7,50.9,52.6,49.5,46.7,91,80,72,30.12,29.98,13,2,15,0.00
2013-9-27,65.2,58.3,52.8,54.2,51.2,48.3,93,78,55,30.24,30.11,13,2,14,0.00
2013-9-28,61.7,56.3,50.7,56.9,52.9,48.8,97,89,74,30.33,30.23,14,2,16,0.00
2013-9-29,59.7,52.8,46.9,54.7,50.4,46.1,98,92,76,30.26,30.12,9,0,11,0.01
2013-9-30,59.2,51.6,46.0,54.6,50.1,45.5,100,95,84,30.13,29.96,5,0,7,0.00
2013-10-1,70.9,58.7,47.9,58.3,52.3,46.5,97,81,52,29.96,29.83,1,0,1,0.00
2013-10-2,78.3,67.1,57.5,62.0,58.1,53.8,90,74,53,29.91,29.78,1,0,7,0.00
2013-10-3,74.9,64.7,56.9,58.8,53.4,46.1,89,69,37,30.06,29.92,9,0,11,0.00
2013-10-4,63.7,59.1,52.7,57.8,54.0,49.4,95,84,63,30.08,30.02,10,0,12,0.00
2013-10-5,60.0,58.3,56.5,56.5,55.0,53.5,95,89,81,30.12,30.04,15,4,18,0.00
2013-10-6,58.5,56.3,53.4,56.5,53.7,48.4,97,91,77,30.25,30.11,19,8,21,0.14
2013-10-7,73.8,63.6,56.8,68.0,61.3,54.9,98,93,77,30.15,29.79,8,0,16,0.09
2013-10-8,62.7,57.1,47.8,55.2,46.2,39.6,85,68,43,30.37,29.86,20,2,27,0.00
2013-10-9,56.2,49.8,42.0,48.4,44.8,39.8,95,83,73,30.48,30.36,13,4,15,0.00
2013-10-10,56.2,50.5,43.5,52.1,47.7,42.2,96,90,83,30.36,30.18,8,3,9,0.00
2013-10-11,59.8,53.9,48.0,54.6,50.7,46.6,96,89,78,30.18,30.10,8,1,11,0.00
2013-10-12,56.4,53.8,50.0,54.7,51.3,47.6,95,91,84,30.40,30.15,22,2,22,0.00
2013-10-13,57.1,51.4,44.8,49.8,46.7,42.9,96,85,69,30.45,30.38,9,2,11,0.00
2013-10-14,59.4,49.9,38.9,51.6,45.3,37.6,97,85,59,30.40,30.24,14,2,18,0.01
2013-10-15,57.9,55.6,52.2,55.8,53.2,49.9,96,92,88,30.26,30.18,12,1,14,0.00
2013-10-16,57.0,55.9,52.3,55.2,53.9,50.9,97,93,88,30.18,29.90,10,1,11,0.00
2013-10-17,73.2,61.0,53.3,59.2,54.0,47.7,100,81,43,29.92,29.69,13,0,16,0.00
2013-10-18,65.6,60.6,54.3,58.9,50.9,39.8,97,72,49,29.88,29.58,27,3,32,0.07
2013-10-19,63.8,55.7,46.1,52.4,45.1,39.3,82,68,46,29.95,29.75,12,2,19,0.00
2013-10-20,59.6,54.7,49.1,51.3,42.0,35.3,87,64,41,29.99,29.67,27,10,32,0.00
2013-10-21,63.7,51.5,40.7,52.4,42.9,37.1,87,73,46,30.10,29.98,13,5,17,0.00
2013-10-22,63.2,54.7,47.9,52.0,46.6,38.2,92,75,58,29.98,29.69,20,8,26,0.00
2013-10-23,51.6,47.3,39.6,39.1,36.3,33.6,85,66,51,29.78,29.58,14,4,16,0.00
2013-10-24,51.3,46.4,41.2,37.4,32.2,27.7,78,59,41,29.85,29.60,32,14,36,0.00
2013-10-25,47.2,41.7,35.1,34.8,31.2,26.5,84,67,45,30.13,29.86,26,9,28,0.00
2013-10-26,53.7,44.6,35.4,36.1,31.5,26.1,87,62,35,30.13,29.87,28,10,32,0.00
2013-10-27,52.8,47.3,41.1,41.4,35.4,28.8,89,65,44,30.03,29.80,24,10,29,0.02
2013-10-28,56.0,44.8,37.1,37.1,32.7,26.7,79,63,45,30.34,30.03,27,12,33,0.00
2013-10-29,45.6,37.3,29.6,34.2,29.1,25.2,89,73,54,30.44,30.34,10,4,11,0.00
2013-10-30,48.1,39.2,33.8,38.8,34.2,24.9,91,83,53,30.36,30.19,12,2,16,0.01
2013-10-31,62.0,47.0,33.7,58.4,45.1,32.2,97,93,85,30.23,29.77,21,5,28,0.06
2013-11-1,70.9,64.9,59.0,62.0,58.0,53.5,95,79,62,29.77,29.38,40,15,54,0.00
2013-11-2,61.7,54.9,49.7,53.5,46.5,42.3,88,74,52,29.71,29.58,31,5,33,0.00
2013-11-3,52.4,42.1,33.3,46.9,33.7,21.0,93,73,48,30.42,29.71,24,10,27,0.02
2013-11-4,40.6,33.5,27.5,28.1,22.2,16.5,82,64,40,30.71,30.42,17,6,19,0.00
2013-11-5,47.6,37.7,28.6,36.3,29.7,22.6,84,73,57,30.71,30.50,13,6,17,0.00
2013-11-6,59.5,49.4,40.8,49.0,41.6,34.5,83,75,57,30.51,30.00,19,9,21,0.00
2013-11-7,63.9,54.0,41.3,57.6,48.8,34.6,92,83,73,30.00,29.64,25,12,32,0.10
2013-11-8,45.5,40.0,34.9,35.9,30.3,24.7,83,68,53,30.05,29.79,27,12,37,0.00
2013-11-9,43.0,39.7,34.8,30.8,25.5,22.4,69,57,45,30.17,30.04,24,11,30,0.00
2013-11-10,51.2,45.5,40.1,42.7,37.4,30.7,94,74,62,30.03,29.72,22,9,26,0.00
2013-11-11,49.4,44.6,40.1,34.6,29.7,26.4,70,56,42,30.07,29.80,26,14,31,0.00
2013-11-12,48.3,36.9,28.2,35.1,24.7,16.4,68,61,55,30.17,29.85,29,15,34,0.00
2013-11-13,34.2,29.2,25.3,18.7,15.9,12.8,70,58,42,30.27,30.13,25,12,28,0.00
2013-11-14,50.6,39.5,28.0,30.4,24.2,17.0,68,55,43,30.13,30.00,26,10,31,0.00
2013-11-15,57.5,45.0,35.5,36.3,25.8,19.5,74,49,23,30.17,30.08,16,4,19,0.00
2013-11-16,50.0,43.2,35.8,40.8,34.6,28.6,93,73,44,30.32,30.16,6,1,7,0.00
2013-11-17,50.7,42.8,33.7,50.2,42.1,32.8,100,97,93,30.32,29.86,9,3,13,0.08
2013-11-18,63.6,56.0,49.6,60.8,46.4,32.9,98,73,44,29.86,29.49,27,10,30,0.01
2013-11-19,49.5,38.9,32.6,34.2,23.3,17.9,64,53,45,30.25,29.62,34,20,40,0.00
2013-11-20,40.5,33.5,28.4,20.8,17.4,13.6,64,52,35,30.62,30.25,23,12,33,0.00
2013-11-21,45.1,35.6,24.6,26.7,21.1,14.0,77,57,32,30.63,30.36,15,4,18,0.00
2013-11-22,42.3,40.4,37.8,40.3,36.6,25.9,97,87,62,30.35,29.79,10,4,11,0.13
2013-11-23,44.1,38.4,30.5,43.3,29.0,15.4,97,71,45,29.88,29.74,32,15,40,0.00
2013-11-24,30.4,23.9,19.8,21.2,8.5,-1.9,84,53,37,30.15,29.75,48,29,59,0.02
2013-11-25,31.2,24.4,18.2,15.8,2.8,-7.0,54,40,23,30.33,30.15,40,15,41,0.00
2013-11-26,43.2,33.7,27.9,41.6,25.2,15.6,96,71,54,30.32,30.07,13,5,16,0.12
2013-11-27,59.1,48.0,37.1,58.5,46.5,31.8,98,94,79,30.07,29.19,32,13,38,0.92
2013-11-28,37.5,31.5,24.1,32.2,17.7,6.7,82,57,37,30.42,29.39,35,20,41,0.00
2013-11-29,29.7,24.3,19.7,14.5,10.0,2.3,73,55,31,30.74,30.41,21,11,26,0.00
2013-11-30,32.6,24.8,15.9,23.6,17.2,10.1,87,73,58,30.79,30.43,11,5,13,0.00
2013-12-1,37.7,34.9,30.3,36.9,31.8,22.4,97,89,72,30.43,30.01,12,4,15,0.13
2013-12-2,39.1,37.0,35.6,37.2,35.8,34.8,97,95,92,30.01,29.91,11,7,15,0.00
2013-12-3,45.9,37.8,35.0,38.4,34.7,31.1,97,89,70,29.93,29.83,14,6,16,0.00
2013-12-4,39.7,35.8,32.4,31.7,28.7,25.1,88,76,63,30.19,29.92,18,8,21,0.00
2013-12-5,46.6,40.0,32.4,45.3,37.8,28.4,98,92,81,30.22,29.90,11,3,12,0.02
2013-12-6,48.5,45.7,42.5,46.4,43.5,39.4,100,92,79,30.15,29.83,17,2,21,0.01
2013-12-7,48.5,48.5,48.5,45.4,45.4,45.4,89,89,89,30.44,30.07,0,0,1,0.00
2013-12-8,48.5,48.5,48.5,45.4,45.4,45.4,89,89,89,30.58,30.43,0,0,1,0.00
2013-12-9,48.5,48.5,48.5,45.4,45.4,45.4,89,89,89,30.50,29.86,0,0,1,0.00
2013-12-10,48.5,48.5,48.5,45.4,45.4,45.4,89,89,89,29.95,29.75,0,0,1,0.00
2013-12-11,48.5,48.5,48.5,45.4,45.4,45.4,89,89,89,30.17,29.95,0,0,1,0.00
2013-12-12,48.5,48.5,48.5,45.4,45.4,45.4,89,89,89,30.25,30.03,0,0,1,0.00
2013-12-13,48.5,48.5,48.5,45.4,45.4,45.4,89,89,89,30.40,29.95,0,0,1,0.00
2013-12-14,48.5,48.5,48.5,45.4,45.4,45.4,89,89,89,30.59,30.40,0,0,1,0.00
2013-12-15,48.5,48.5,48.5,45.4,45.4,45.4,89,89,89,30.59,30.59,0,0,1,0.00
2013-12-16,48.5,48.5,48.5,45.4,45.4,45.4,89,89,89,30.59,30.59,0,0,1,0.00
2013-12-17,65.3,53.7,48.5,45.4,39.8,28.9,89,66,31,30.59,29.96,0,0,6,0.03
2013-12-18,62.8,60.6,59.0,39.2,33.3,28.0,43,36,30,30.04,29.85,0,0,9,0.00
2013-12-19,64.3,51.6,33.5,40.5,30.7,22.9,69,46,30,30.09,29.93,10,3,13,0.01
2013-12-20,46.6,39.3,33.2,38.1,31.9,25.8,90,75,68,30.11,29.88,13,2,13,0.00
2013-12-21,57.6,47.1,37.6,46.4,40.2,33.5,92,77,64,29.93,29.82,15,4,17,0.00
2013-12-22,48.3,34.9,30.4,44.9,33.7,29.7,97,96,87,30.05,29.80,24,9,26,0.06
2013-12-23,37.0,32.0,29.4,36.1,31.2,28.7,97,97,95,30.11,29.97,11,5,16,0.38
2013-12-24,35.8,31.6,25.1,34.5,23.5,12.0,96,73,53,30.19,30.04,21,9,29,0.00
2013-12-25,25.0,17.8,10.4,14.3,5.8,-0.6,72,59,47,30.56,30.19,27,10,35,0.00
2013-12-26,32.5,24.0,18.8,30.7,19.7,8.7,95,84,58,30.51,30.06,13,4,16,0.00
2013-12-27,33.0,27.6,21.4,22.6,20.8,19.0,92,76,60,30.24,30.17,21,10,29,0.00
2013-12-28,45.5,35.0,24.2,30.8,26.0,20.0,85,71,51,30.18,29.94,19,9,24,0.00
2013-12-29,40.8,36.5,30.9,39.6,32.0,26.2,97,84,70,30.01,29.42,24,6,30,0.90
2013-12-30,41.6,31.7,15.4,34.8,23.5,0.5,97,73,40,30.18,29.49,30,14,33,0.00
2013-12-31,23.5,15.4,8.8,14.7,3.5,-2.6,79,60,40,30.18,30.02,17,8,19,0.00
2014-1-1,24.5,20.8,17.6,12.3,9.0,6.0,69,60,47,30.39,30.16,27,12,30,0.00
2014-1-2,20.7,8.6,-1.2,13.6,4.7,-4.6,90,84,65,30.38,29.91,28,17,33,0.00